TimeEDT,TemperatureF,Dew PointF,Humidity,Sea Level PressureIn,VisibilityMPH,Wind Direction,Wind SpeedMPH,Gust SpeedMPH,PrecipitationIn,Events,Conditions,WindDirDegrees,DateUTC
12:52 AM,66.0,61.0,84,30.09,10.0,WSW,4.6,-,N/A,,Clear,250,2013-08-20 04:52:00
1:52 AM,64.9,60.1,84,30.09,10.0,WSW,3.5,-,N/A,,Clear,250,2013-08-20 05:52:00
2:52 AM,62.1,60.1,93,30.09,9.0,Calm,Calm,-,N/A,,Clear,0,2013-08-20 06:52:00
3:52 AM,62.1,59.0,90,30.09,7.0,Calm,Calm,-,N/A,,Clear,0,2013-08-20 07:52:00
4:52 AM,60.1,59.0,96,30.10,6.0,Calm,Calm,-,N/A,,Clear,0,2013-08-20 08:52:00
5:52 AM,59.0,57.9,96,30.11,2.5,Calm,Calm,-,N/A,,Clear,0,2013-08-20 09:52:00
6:14 AM,59.0,57.2,94,30.12,4.0,Calm,Calm,-,N/A,,Clear,0,2013-08-20 10:14:00
6:52 AM,59.0,57.0,93,30.13,3.0,West,3.5,-,N/A,,Partly Cloudy,260,2013-08-20 10:52:00
7:26 AM,60.8,59.0,94,30.14,2.0,Calm,Calm,-,N/A,,Clear,0,2013-08-20 11:26:00
7:42 AM,62.6,60.8,94,30.14,3.0,Calm,Calm,-,N/A,,Mostly Cloudy,0,2013-08-20 11:42:00
7:52 AM,63.0,60.1,90,30.14,4.0,Calm,Calm,-,N/A,,Scattered Clouds,0,2013-08-20 11:52:00
8:52 AM,68.0,62.1,81,30.15,6.0,West,3.5,-,N/A,,Haze,260,2013-08-20 12:52:00
9:52 AM,73.9,64.0,71,30.16,10.0,SW,4.6,-,N/A,,Clear,230,2013-08-20 13:52:00
10:52 AM,77.0,63.0,62,30.17,10.0,SW,6.9,-,N/A,,Clear,230,2013-08-20 14:52:00
11:52 AM,80.1,64.0,58,30.17,10.0,SW,8.1,-,N/A,,Clear,230,2013-08-20 15:52:00
12:52 PM,82.9,61.0,47,30.15,10.0,SW,5.8,-,N/A,,Partly Cloudy,230,2013-08-20 16:52:00
1:52 PM,84.9,61.0,44,30.14,10.0,Variable,5.8,-,N/A,,Partly Cloudy,0,2013-08-20 17:52:00
2:52 PM,82.9,61.0,47,30.13,10.0,SSW,10.4,-,N/A,,Clear,200,2013-08-20 18:52:00
3:52 PM,84.9,61.0,44,30.11,10.0,South,6.9,-,N/A,,Partly Cloudy,180,2013-08-20 19:52:00
4:52 PM,84.9,61.0,44,30.10,10.0,SW,6.9,-,N/A,,Clear,230,2013-08-20 20:52:00
5:52 PM,84.0,62.1,47,30.09,10.0,South,8.1,-,N/A,,Clear,190,2013-08-20 21:52:00
6:52 PM,82.0,63.0,52,30.09,10.0,Calm,Calm,-,N/A,,Clear,0,2013-08-20 22:52:00
7:52 PM,77.0,64.9,66,30.09,10.0,Calm,Calm,-,N/A,,Clear,0,2013-08-20 23:52:00
8:52 PM,72.0,66.0,81,30.10,9.0,South,3.5,-,N/A,,Clear,170,2013-08-21 00:52:00
9:52 PM,70.0,64.9,84,30.11,10.0,SSE,3.5,-,N/A,,Clear,160,2013-08-21 01:52:00
10:52 PM,66.0,64.0,93,30.12,9.0,Calm,Calm,-,N/A,,Clear,0,2013-08-21 02:52:00
11:52 PM,66.9,63.0,87,30.13,9.0,Calm,Calm,-,N/A,,Clear,0,2013-08-21 03:52:00